sensor_id;sensor_type;location;lat;lon;timestamp;P1;durP1;ratioP1;P2;durP2;ratioP2
41532;SDS011;27262;-35.248;149.138;2023-08-24T00:01:43;2.63;;;0.50;;
41532;SDS011;27262;-35.248;149.138;2023-08-24T00:04:13;0.73;;;0.50;;
41532;SDS011;27262;-35.248;149.138;2023-08-24T00:06:44;3.00;;;0.50;;
41532;SDS011;27262;-35.248;149.138;2023-08-24T00:09:14;0.50;;;0.38;;
41532;SDS011;27262;-35.248;149.138;2023-08-24T00:11:45;0.50;;;0.47;;
41532;SDS011;27262;-35.248;149.138;2023-08-24T00:14:15;0.43;;;0.40;;
41532;SDS011;27262;-35.248;149.138;2023-08-24T00:16:45;0.57;;;0.43;;
41532;SDS011;27262;-35.248;149.138;2023-08-24T00:19:16;2.55;;;0.65;;
41532;SDS011;27262;-35.248;149.138;2023-08-24T00:21:46;0.82;;;0.50;;
41532;SDS011;27262;-35.248;149.138;2023-08-24T00:24:16;2.25;;;0.40;;
41532;SDS011;27262;-35.248;149.138;2023-08-24T00:26:46;0.40;;;0.40;;
41532;SDS011;27262;-35.248;149.138;2023-08-24T00:29:17;0.40;;;0.40;;
41532;SDS011;27262;-35.248;149.138;2023-08-24T00:31:47;0.68;;;0.38;;
41532;SDS011;27262;-35.248;149.138;2023-08-24T00:34:17;1.02;;;0.40;;
41532;SDS011;27262;-35.248;149.138;2023-08-24T00:36:48;0.43;;;0.40;;
41532;SDS011;27262;-35.248;149.138;2023-08-24T00:39:18;1.42;;;0.68;;
41532;SDS011;27262;-35.248;149.138;2023-08-24T00:41:49;0.63;;;0.40;;
41532;SDS011;27262;-35.248;149.138;2023-08-24T00:44:19;0.68;;;0.50;;
41532;SDS011;27262;-35.248;149.138;2023-08-24T00:46:49;0.73;;;0.55;;
41532;SDS011;27262;-35.248;149.138;2023-08-24T00:49:20;2.58;;;0.30;;
41532;SDS011;27262;-35.248;149.138;2023-08-24T00:51:51;1.10;;;0.30;;
41532;SDS011;27262;-35.248;149.138;2023-08-24T00:54:22;5.70;;;0.38;;
41532;SDS011;27262;-35.248;149.138;2023-08-24T00:56:52;1.17;;;0.40;;
41532;SDS011;27262;-35.248;149.138;2023-08-24T00:59:23;1.08;;;0.40;;
41532;SDS011;27262;-35.248;149.138;2023-08-24T01:01:53;0.38;;;0.30;;
41532;SDS011;27262;-35.248;149.138;2023-08-24T01:04:25;3.17;;;0.60;;
41532;SDS011;27262;-35.248;149.138;2023-08-24T01:06:55;2.47;;;0.50;;
41532;SDS011;27262;-35.248;149.138;2023-08-24T01:09:26;2.58;;;0.40;;
41532;SDS011;27262;-35.248;149.138;2023-08-24T01:12:04;2.63;;;0.55;;
41532;SDS011;27262;-35.248;149.138;2023-08-24T01:15:07;2.55;;;0.40;;
41532;SDS011;27262;-35.248;149.138;2023-08-24T01:17:52;5.10;;;0.57;;
41532;SDS011;27262;-35.248;149.138;2023-08-24T01:20:26;0.68;;;0.30;;
41532;SDS011;27262;-35.248;149.138;2023-08-24T01:28:14;0.93;;;0.40;;
41532;SDS011;27262;-35.248;149.138;2023-08-24T01:30:45;0.70;;;0.57;;
41532;SDS011;27262;-35.248;149.138;2023-08-24T01:33:15;2.58;;;0.40;;
41532;SDS011;27262;-35.248;149.138;2023-08-24T01:35:49;0.82;;;0.52;;
41532;SDS011;27262;-35.248;149.138;2023-08-24T01:38:30;2.38;;;0.30;;
41532;SDS011;27262;-35.248;149.138;2023-08-24T01:43:54;0.93;;;0.38;;
41532;SDS011;27262;-35.248;149.138;2023-08-24T01:46:26;2.88;;;0.57;;
41532;SDS011;27262;-35.248;149.138;2023-08-24T01:48:57;10.98;;;0.57;;
41532;SDS011;27262;-35.248;149.138;2023-08-24T01:51:28;1.40;;;0.40;;
41532;SDS011;27262;-35.248;149.138;2023-08-24T01:53:59;0.68;;;0.30;;
41532;SDS011;27262;-35.248;149.138;2023-08-24T01:56:31;1.55;;;0.43;;
41532;SDS011;27262;-35.248;149.138;2023-08-24T01:59:01;0.50;;;0.40;;
41532;SDS011;27262;-35.248;149.138;2023-08-24T02:01:32;0.63;;;0.30;;
41532;SDS011;27262;-35.248;149.138;2023-08-24T02:04:02;1.98;;;0.50;;
41532;SDS011;27262;-35.248;149.138;2023-08-24T02:06:33;1.65;;;0.40;;
41532;SDS011;27262;-35.248;149.138;2023-08-24T02:09:03;0.88;;;0.40;;
41532;SDS011;27262;-35.248;149.138;2023-08-24T02:11:33;0.80;;;0.30;;
41532;SDS011;27262;-35.248;149.138;2023-08-24T02:14:04;1.65;;;0.50;;
41532;SDS011;27262;-35.248;149.138;2023-08-24T02:16:35;0.82;;;0.20;;
41532;SDS011;27262;-35.248;149.138;2023-08-24T02:19:06;0.60;;;0.50;;
41532;SDS011;27262;-35.248;149.138;2023-08-24T02:21:36;1.45;;;0.30;;
41532;SDS011;27262;-35.248;149.138;2023-08-24T02:24:07;0.80;;;0.30;;
41532;SDS011;27262;-35.248;149.138;2023-08-24T02:26:37;0.50;;;0.40;;
41532;SDS011;27262;-35.248;149.138;2023-08-24T02:29:08;0.40;;;0.40;;
41532;SDS011;27262;-35.248;149.138;2023-08-24T02:31:39;0.95;;;0.40;;
41532;SDS011;27262;-35.248;149.138;2023-08-24T02:34:09;1.65;;;0.30;;
41532;SDS011;27262;-35.248;149.138;2023-08-24T02:36:40;0.80;;;0.40;;
41532;SDS011;27262;-35.248;149.138;2023-08-24T02:39:11;0.38;;;0.38;;
41532;SDS011;27262;-35.248;149.138;2023-08-24T02:41:42;3.03;;;0.40;;
41532;SDS011;27262;-35.248;149.138;2023-08-24T02:44:12;0.68;;;0.50;;
41532;SDS011;27262;-35.248;149.138;2023-08-24T02:46:47;0.20;;;0.20;;
41532;SDS011;27262;-35.248;149.138;2023-08-24T02:49:18;0.40;;;0.30;;
41532;SDS011;27262;-35.248;149.138;2023-08-24T02:51:49;1.25;;;0.30;;
41532;SDS011;27262;-35.248;149.138;2023-08-24T02:54:20;0.22;;;0.20;;
41532;SDS011;27262;-35.248;149.138;2023-08-24T02:56:50;0.63;;;0.35;;
41532;SDS011;27262;-35.248;149.138;2023-08-24T02:59:22;0.98;;;0.38;;
41532;SDS011;27262;-35.248;149.138;2023-08-24T03:01:53;2.70;;;0.50;;
41532;SDS011;27262;-35.248;149.138;2023-08-24T03:04:23;0.75;;;0.30;;
41532;SDS011;27262;-35.248;149.138;2023-08-24T03:06:53;2.75;;;0.30;;
41532;SDS011;27262;-35.248;149.138;2023-08-24T03:09:24;4.65;;;0.50;;
41532;SDS011;27262;-35.248;149.138;2023-08-24T03:11:54;1.50;;;0.55;;
41532;SDS011;27262;-35.248;149.138;2023-08-24T03:14:24;2.55;;;0.40;;
41532;SDS011;27262;-35.248;149.138;2023-08-24T03:16:55;6.43;;;0.40;;
41532;SDS011;27262;-35.248;149.138;2023-08-24T03:19:25;1.80;;;0.60;;
41532;SDS011;27262;-35.248;149.138;2023-08-24T03:21:55;0.82;;;0.40;;
41532;SDS011;27262;-35.248;149.138;2023-08-24T03:24:26;1.83;;;0.30;;
41532;SDS011;27262;-35.248;149.138;2023-08-24T03:26:56;0.95;;;0.50;;
41532;SDS011;27262;-35.248;149.138;2023-08-24T03:29:26;1.10;;;0.45;;
41532;SDS011;27262;-35.248;149.138;2023-08-24T03:31:57;7.18;;;0.63;;
41532;SDS011;27262;-35.248;149.138;2023-08-24T03:34:28;2.28;;;0.63;;
41532;SDS011;27262;-35.248;149.138;2023-08-24T03:37:00;2.45;;;0.45;;
41532;SDS011;27262;-35.248;149.138;2023-08-24T03:39:30;2.35;;;0.70;;
41532;SDS011;27262;-35.248;149.138;2023-08-24T03:42:00;0.75;;;0.35;;
41532;SDS011;27262;-35.248;149.138;2023-08-24T03:44:31;0.52;;;0.40;;
41532;SDS011;27262;-35.248;149.138;2023-08-24T03:47:01;1.35;;;0.73;;
41532;SDS011;27262;-35.248;149.138;2023-08-24T03:49:32;0.70;;;0.30;;
41532;SDS011;27262;-35.248;149.138;2023-08-24T03:52:02;0.30;;;0.30;;
41532;SDS011;27262;-35.248;149.138;2023-08-24T03:54:33;1.02;;;0.32;;
41532;SDS011;27262;-35.248;149.138;2023-08-24T03:57:04;0.50;;;0.50;;
41532;SDS011;27262;-35.248;149.138;2023-08-24T03:59:35;0.60;;;0.40;;
41532;SDS011;27262;-35.248;149.138;2023-08-24T04:02:05;1.38;;;0.45;;
41532;SDS011;27262;-35.248;149.138;2023-08-24T04:04:36;1.23;;;0.65;;
41532;SDS011;27262;-35.248;149.138;2023-08-24T04:07:07;0.88;;;0.40;;
41532;SDS011;27262;-35.248;149.138;2023-08-24T04:09:37;0.55;;;0.40;;
41532;SDS011;27262;-35.248;149.138;2023-08-24T04:12:09;0.50;;;0.38;;
41532;SDS011;27262;-35.248;149.138;2023-08-24T04:14:40;1.88;;;0.45;;
41532;SDS011;27262;-35.248;149.138;2023-08-24T04:17:11;2.70;;;0.50;;
41532;SDS011;27262;-35.248;149.138;2023-08-24T04:19:42;1.08;;;0.55;;
41532;SDS011;27262;-35.248;149.138;2023-08-24T04:22:13;1.75;;;0.60;;
41532;SDS011;27262;-35.248;149.138;2023-08-24T04:24:43;3.80;;;0.60;;
41532;SDS011;27262;-35.248;149.138;2023-08-24T04:27:14;1.45;;;0.60;;
41532;SDS011;27262;-35.248;149.138;2023-08-24T04:29:44;3.42;;;0.50;;
41532;SDS011;27262;-35.248;149.138;2023-08-24T04:32:15;0.88;;;0.60;;
41532;SDS011;27262;-35.248;149.138;2023-08-24T04:34:46;1.42;;;0.80;;
41532;SDS011;27262;-35.248;149.138;2023-08-24T04:37:16;4.38;;;0.70;;
41532;SDS011;27262;-35.248;149.138;2023-08-24T04:39:46;1.15;;;0.50;;
41532;SDS011;27262;-35.248;149.138;2023-08-24T04:42:17;1.50;;;0.50;;
41532;SDS011;27262;-35.248;149.138;2023-08-24T04:44:47;1.63;;;0.50;;
41532;SDS011;27262;-35.248;149.138;2023-08-24T04:47:19;2.17;;;0.60;;
41532;SDS011;27262;-35.248;149.138;2023-08-24T04:49:50;0.85;;;0.45;;
41532;SDS011;27262;-35.248;149.138;2023-08-24T04:52:20;2.83;;;0.60;;
41532;SDS011;27262;-35.248;149.138;2023-08-24T04:54:51;3.33;;;0.60;;
41532;SDS011;27262;-35.248;149.138;2023-08-24T04:57:21;0.68;;;0.57;;
41532;SDS011;27262;-35.248;149.138;2023-08-24T04:59:52;1.17;;;0.50;;
41532;SDS011;27262;-35.248;149.138;2023-08-24T05:02:22;0.50;;;0.50;;
41532;SDS011;27262;-35.248;149.138;2023-08-24T05:04:53;0.85;;;0.50;;
41532;SDS011;27262;-35.248;149.138;2023-08-24T05:07:23;1.48;;;0.90;;
41532;SDS011;27262;-35.248;149.138;2023-08-24T05:09:54;0.55;;;0.47;;
41532;SDS011;27262;-35.248;149.138;2023-08-24T05:12:24;2.05;;;0.60;;
41532;SDS011;27262;-35.248;149.138;2023-08-24T05:14:54;0.40;;;0.40;;
41532;SDS011;27262;-35.248;149.138;2023-08-24T05:17:25;1.73;;;0.60;;
41532;SDS011;27262;-35.248;149.138;2023-08-24T05:19:56;0.50;;;0.47;;
41532;SDS011;27262;-35.248;149.138;2023-08-24T05:22:27;0.77;;;0.50;;
41532;SDS011;27262;-35.248;149.138;2023-08-24T05:24:57;0.50;;;0.50;;
41532;SDS011;27262;-35.248;149.138;2023-08-24T05:27:28;1.48;;;0.40;;
41532;SDS011;27262;-35.248;149.138;2023-08-24T05:29:58;0.57;;;0.50;;
41532;SDS011;27262;-35.248;149.138;2023-08-24T05:32:28;0.52;;;0.52;;
41532;SDS011;27262;-35.248;149.138;2023-08-24T05:35:02;1.95;;;0.70;;
41532;SDS011;27262;-35.248;149.138;2023-08-24T05:37:32;0.85;;;0.50;;
41532;SDS011;27262;-35.248;149.138;2023-08-24T05:40:03;1.25;;;0.60;;
41532;SDS011;27262;-35.248;149.138;2023-08-24T05:42:34;2.25;;;0.50;;
41532;SDS011;27262;-35.248;149.138;2023-08-24T05:45:05;1.23;;;0.70;;
41532;SDS011;27262;-35.248;149.138;2023-08-24T05:47:36;1.42;;;0.50;;
41532;SDS011;27262;-35.248;149.138;2023-08-24T05:50:06;0.50;;;0.50;;
41532;SDS011;27262;-35.248;149.138;2023-08-24T05:52:37;1.38;;;0.50;;
41532;SDS011;27262;-35.248;149.138;2023-08-24T05:55:07;1.40;;;0.45;;
41532;SDS011;27262;-35.248;149.138;2023-08-24T05:57:38;0.95;;;0.50;;
41532;SDS011;27262;-35.248;149.138;2023-08-24T06:00:08;2.03;;;0.60;;
41532;SDS011;27262;-35.248;149.138;2023-08-24T06:02:39;0.65;;;0.60;;
41532;SDS011;27262;-35.248;149.138;2023-08-24T06:05:10;4.97;;;0.80;;
41532;SDS011;27262;-35.248;149.138;2023-08-24T06:07:40;2.42;;;0.60;;
41532;SDS011;27262;-35.248;149.138;2023-08-24T06:10:11;0.45;;;0.45;;
41532;SDS011;27262;-35.248;149.138;2023-08-24T06:12:41;2.05;;;0.60;;
41532;SDS011;27262;-35.248;149.138;2023-08-24T06:15:12;1.40;;;0.50;;
41532;SDS011;27262;-35.248;149.138;2023-08-24T06:17:43;2.35;;;0.70;;
41532;SDS011;27262;-35.248;149.138;2023-08-24T06:20:17;2.88;;;0.68;;
41532;SDS011;27262;-35.248;149.138;2023-08-24T06:22:48;1.67;;;0.40;;
41532;SDS011;27262;-35.248;149.138;2023-08-24T06:25:18;1.60;;;0.70;;
41532;SDS011;27262;-35.248;149.138;2023-08-24T06:27:49;2.88;;;0.77;;
41532;SDS011;27262;-35.248;149.138;2023-08-24T06:30:19;1.48;;;0.63;;
41532;SDS011;27262;-35.248;149.138;2023-08-24T06:32:49;0.50;;;0.40;;
41532;SDS011;27262;-35.248;149.138;2023-08-24T06:35:20;0.73;;;0.60;;
41532;SDS011;27262;-35.248;149.138;2023-08-24T06:37:50;1.40;;;0.60;;
41532;SDS011;27262;-35.248;149.138;2023-08-24T06:40:21;1.52;;;0.50;;
41532;SDS011;27262;-35.248;149.138;2023-08-24T06:42:51;0.85;;;0.57;;
41532;SDS011;27262;-35.248;149.138;2023-08-24T06:45:22;0.55;;;0.40;;
41532;SDS011;27262;-35.248;149.138;2023-08-24T06:47:52;1.05;;;0.50;;
41532;SDS011;27262;-35.248;149.138;2023-08-24T06:50:23;2.17;;;0.60;;
41532;SDS011;27262;-35.248;149.138;2023-08-24T06:52:53;4.57;;;0.50;;
41532;SDS011;27262;-35.248;149.138;2023-08-24T06:55:23;14.18;;;0.70;;
41532;SDS011;27262;-35.248;149.138;2023-08-24T06:57:54;4.75;;;0.47;;
41532;SDS011;27262;-35.248;149.138;2023-08-24T07:00:24;3.20;;;0.80;;
41532;SDS011;27262;-35.248;149.138;2023-08-24T07:02:55;2.25;;;0.50;;
41532;SDS011;27262;-35.248;149.138;2023-08-24T07:05:26;2.65;;;0.85;;
41532;SDS011;27262;-35.248;149.138;2023-08-24T07:07:57;2.72;;;0.60;;
41532;SDS011;27262;-35.248;149.138;2023-08-24T07:10:29;1.48;;;0.82;;
41532;SDS011;27262;-35.248;149.138;2023-08-24T07:12:59;2.70;;;0.60;;
41532;SDS011;27262;-35.248;149.138;2023-08-24T07:15:29;0.82;;;0.50;;
41532;SDS011;27262;-35.248;149.138;2023-08-24T07:18:02;1.42;;;0.60;;
41532;SDS011;27262;-35.248;149.138;2023-08-24T07:20:34;2.38;;;0.60;;
41532;SDS011;27262;-35.248;149.138;2023-08-24T07:23:06;3.72;;;0.60;;
41532;SDS011;27262;-35.248;149.138;2023-08-24T07:25:36;1.52;;;0.47;;
41532;SDS011;27262;-35.248;149.138;2023-08-24T07:28:06;1.05;;;0.63;;
41532;SDS011;27262;-35.248;149.138;2023-08-24T07:30:37;0.68;;;0.65;;
41532;SDS011;27262;-35.248;149.138;2023-08-24T07:33:08;1.75;;;0.60;;
41532;SDS011;27262;-35.248;149.138;2023-08-24T07:35:38;0.68;;;0.50;;
41532;SDS011;27262;-35.248;149.138;2023-08-24T07:38:08;0.35;;;0.35;;
41532;SDS011;27262;-35.248;149.138;2023-08-24T07:40:39;4.13;;;0.60;;
41532;SDS011;27262;-35.248;149.138;2023-08-24T07:43:09;2.47;;;0.50;;
41532;SDS011;27262;-35.248;149.138;2023-08-24T07:45:40;1.60;;;0.50;;
41532;SDS011;27262;-35.248;149.138;2023-08-24T07:48:10;1.42;;;0.70;;
41532;SDS011;27262;-35.248;149.138;2023-08-24T07:50:40;0.50;;;0.50;;
41532;SDS011;27262;-35.248;149.138;2023-08-24T07:53:11;1.05;;;0.47;;
41532;SDS011;27262;-35.248;149.138;2023-08-24T07:55:42;2.30;;;0.60;;
41532;SDS011;27262;-35.248;149.138;2023-08-24T07:58:13;0.60;;;0.57;;
41532;SDS011;27262;-35.248;149.138;2023-08-24T08:00:43;2.45;;;0.63;;
41532;SDS011;27262;-35.248;149.138;2023-08-24T08:03:13;0.60;;;0.47;;
41532;SDS011;27262;-35.248;149.138;2023-08-24T08:05:44;1.25;;;0.35;;
41532;SDS011;27262;-35.248;149.138;2023-08-24T08:08:36;0.57;;;0.57;;
41532;SDS011;27262;-35.248;149.138;2023-08-24T08:11:06;1.33;;;0.60;;
41532;SDS011;27262;-35.248;149.138;2023-08-24T08:13:37;0.52;;;0.50;;
41532;SDS011;27262;-35.248;149.138;2023-08-24T08:16:08;1.02;;;0.80;;
41532;SDS011;27262;-35.248;149.138;2023-08-24T08:18:38;2.40;;;0.63;;
41532;SDS011;27262;-35.248;149.138;2023-08-24T08:21:15;0.60;;;0.50;;
41532;SDS011;27262;-35.248;149.138;2023-08-24T08:23:51;2.15;;;1.05;;
41532;SDS011;27262;-35.248;149.138;2023-08-24T08:26:21;2.38;;;0.70;;
41532;SDS011;27262;-35.248;149.138;2023-08-24T08:28:52;5.05;;;0.80;;
41532;SDS011;27262;-35.248;149.138;2023-08-24T08:31:23;1.65;;;0.77;;
41532;SDS011;27262;-35.248;149.138;2023-08-24T08:33:54;2.20;;;0.52;;
41532;SDS011;27262;-35.248;149.138;2023-08-24T08:36:24;4.10;;;0.80;;
41532;SDS011;27262;-35.248;149.138;2023-08-24T08:38:55;5.25;;;1.80;;
41532;SDS011;27262;-35.248;149.138;2023-08-24T08:41:27;5.70;;;1.23;;
41532;SDS011;27262;-35.248;149.138;2023-08-24T08:44:05;4.82;;;1.30;;
41532;SDS011;27262;-35.248;149.138;2023-08-24T08:46:35;4.70;;;0.70;;
41532;SDS011;27262;-35.248;149.138;2023-08-24T08:49:07;6.57;;;1.05;;
41532;SDS011;27262;-35.248;149.138;2023-08-24T08:51:38;4.22;;;1.00;;
41532;SDS011;27262;-35.248;149.138;2023-08-24T08:54:09;4.90;;;0.90;;
41532;SDS011;27262;-35.248;149.138;2023-08-24T08:56:40;2.72;;;1.10;;
41532;SDS011;27262;-35.248;149.138;2023-08-24T08:59:11;2.97;;;0.68;;
41532;SDS011;27262;-35.248;149.138;2023-08-24T09:01:44;4.30;;;0.90;;
41532;SDS011;27262;-35.248;149.138;2023-08-24T09:04:16;2.22;;;1.10;;
41532;SDS011;27262;-35.248;149.138;2023-08-24T09:06:47;4.20;;;1.00;;
41532;SDS011;27262;-35.248;149.138;2023-08-24T09:09:17;2.15;;;1.00;;
41532;SDS011;27262;-35.248;149.138;2023-08-24T09:11:48;1.77;;;1.00;;
41532;SDS011;27262;-35.248;149.138;2023-08-24T09:14:19;3.10;;;1.25;;
41532;SDS011;27262;-35.248;149.138;2023-08-24T09:16:50;4.22;;;1.30;;
41532;SDS011;27262;-35.248;149.138;2023-08-24T09:19:22;3.75;;;1.20;;
41532;SDS011;27262;-35.248;149.138;2023-08-24T09:22:01;2.72;;;1.20;;
41532;SDS011;27262;-35.248;149.138;2023-08-24T09:24:35;2.22;;;1.25;;
41532;SDS011;27262;-35.248;149.138;2023-08-24T09:27:16;1.98;;;1.40;;
41532;SDS011;27262;-35.248;149.138;2023-08-24T09:29:51;4.85;;;1.20;;
41532;SDS011;27262;-35.248;149.138;2023-08-24T09:32:31;3.58;;;1.27;;
41532;SDS011;27262;-35.248;149.138;2023-08-24T09:35:08;3.25;;;0.90;;
41532;SDS011;27262;-35.248;149.138;2023-08-24T09:37:39;1.42;;;0.90;;
41532;SDS011;27262;-35.248;149.138;2023-08-24T09:40:14;2.08;;;1.17;;
41532;SDS011;27262;-35.248;149.138;2023-08-24T09:42:44;3.72;;;1.08;;
41532;SDS011;27262;-35.248;149.138;2023-08-24T09:45:15;1.83;;;0.85;;
41532;SDS011;27262;-35.248;149.138;2023-08-24T09:47:46;1.23;;;0.60;;
41532;SDS011;27262;-35.248;149.138;2023-08-24T09:50:21;1.85;;;1.00;;
41532;SDS011;27262;-35.248;149.138;2023-08-24T09:52:52;3.13;;;1.20;;
41532;SDS011;27262;-35.248;149.138;2023-08-24T09:55:26;3.47;;;0.95;;
41532;SDS011;27262;-35.248;149.138;2023-08-24T09:58:00;1.45;;;1.00;;
41532;SDS011;27262;-35.248;149.138;2023-08-24T10:00:33;1.58;;;0.80;;
41532;SDS011;27262;-35.248;149.138;2023-08-24T10:03:04;2.50;;;1.10;;
41532;SDS011;27262;-35.248;149.138;2023-08-24T10:05:35;1.92;;;0.93;;
41532;SDS011;27262;-35.248;149.138;2023-08-24T10:08:33;0.95;;;0.88;;
41532;SDS011;27262;-35.248;149.138;2023-08-24T10:11:19;1.80;;;1.02;;
41532;SDS011;27262;-35.248;149.138;2023-08-24T10:14:15;2.35;;;0.88;;
41532;SDS011;27262;-35.248;149.138;2023-08-24T10:16:50;1.33;;;0.88;;
41532;SDS011;27262;-35.248;149.138;2023-08-24T10:19:21;1.98;;;0.93;;
41532;SDS011;27262;-35.248;149.138;2023-08-24T10:21:53;3.47;;;1.20;;
41532;SDS011;27262;-35.248;149.138;2023-08-24T10:24:26;2.05;;;0.98;;
41532;SDS011;27262;-35.248;149.138;2023-08-24T10:26:57;1.70;;;1.10;;
41532;SDS011;27262;-35.248;149.138;2023-08-24T10:29:29;1.75;;;0.82;;
41532;SDS011;27262;-35.248;149.138;2023-08-24T10:32:00;2.92;;;0.90;;
41532;SDS011;27262;-35.248;149.138;2023-08-24T10:34:32;1.08;;;0.98;;
41532;SDS011;27262;-35.248;149.138;2023-08-24T10:37:08;1.60;;;1.00;;
41532;SDS011;27262;-35.248;149.138;2023-08-24T10:39:48;2.95;;;1.00;;
41532;SDS011;27262;-35.248;149.138;2023-08-24T10:42:19;3.85;;;1.10;;
41532;SDS011;27262;-35.248;149.138;2023-08-24T10:44:54;1.60;;;0.82;;
41532;SDS011;27262;-35.248;149.138;2023-08-24T10:47:25;1.35;;;0.70;;
41532;SDS011;27262;-35.248;149.138;2023-08-24T10:52:30;1.10;;;0.80;;
41532;SDS011;27262;-35.248;149.138;2023-08-24T10:55:03;4.85;;;0.90;;
41532;SDS011;27262;-35.248;149.138;2023-08-24T10:57:59;2.35;;;1.00;;
41532;SDS011;27262;-35.248;149.138;2023-08-24T11:00:31;1.60;;;0.90;;
41532;SDS011;27262;-35.248;149.138;2023-08-24T11:03:01;1.30;;;0.73;;
41532;SDS011;27262;-35.248;149.138;2023-08-24T11:05:32;6.72;;;0.90;;
41532;SDS011;27262;-35.248;149.138;2023-08-24T11:08:04;3.90;;;1.00;;
41532;SDS011;27262;-35.248;149.138;2023-08-24T11:13:12;3.78;;;1.20;;
41532;SDS011;27262;-35.248;149.138;2023-08-24T11:15:44;2.13;;;0.73;;
41532;SDS011;27262;-35.248;149.138;2023-08-24T11:21:00;1.75;;;0.60;;
41532;SDS011;27262;-35.248;149.138;2023-08-24T11:23:31;0.98;;;0.80;;
41532;SDS011;27262;-35.248;149.138;2023-08-24T11:26:02;3.92;;;1.10;;
41532;SDS011;27262;-35.248;149.138;2023-08-24T11:28:33;2.75;;;1.02;;
41532;SDS011;27262;-35.248;149.138;2023-08-24T11:31:08;3.15;;;1.23;;
41532;SDS011;27262;-35.248;149.138;2023-08-24T11:33:40;2.17;;;1.20;;
41532;SDS011;27262;-35.248;149.138;2023-08-24T11:36:11;2.60;;;1.00;;
41532;SDS011;27262;-35.248;149.138;2023-08-24T11:38:41;3.08;;;0.93;;
41532;SDS011;27262;-35.248;149.138;2023-08-24T11:41:18;1.77;;;1.20;;
41532;SDS011;27262;-35.248;149.138;2023-08-24T11:43:53;4.47;;;1.10;;
41532;SDS011;27262;-35.248;149.138;2023-08-24T11:46:44;2.38;;;1.38;;
41532;SDS011;27262;-35.248;149.138;2023-08-24T11:49:15;3.90;;;1.58;;
41532;SDS011;27262;-35.248;149.138;2023-08-24T11:51:46;5.00;;;1.15;;
41532;SDS011;27262;-35.248;149.138;2023-08-24T11:54:18;4.15;;;1.20;;
41532;SDS011;27262;-35.248;149.138;2023-08-24T11:56:49;2.40;;;1.02;;
41532;SDS011;27262;-35.248;149.138;2023-08-24T11:59:21;4.70;;;1.48;;
41532;SDS011;27262;-35.248;149.138;2023-08-24T12:01:51;2.55;;;1.17;;
41532;SDS011;27262;-35.248;149.138;2023-08-24T12:04:22;6.90;;;1.27;;
41532;SDS011;27262;-35.248;149.138;2023-08-24T12:06:52;2.10;;;1.15;;
41532;SDS011;27262;-35.248;149.138;2023-08-24T12:09:23;1.27;;;1.02;;
41532;SDS011;27262;-35.248;149.138;2023-08-24T12:11:59;5.32;;;1.20;;
41532;SDS011;27262;-35.248;149.138;2023-08-24T12:14:39;1.92;;;1.00;;
41532;SDS011;27262;-35.248;149.138;2023-08-24T12:17:10;1.50;;;1.30;;
41532;SDS011;27262;-35.248;149.138;2023-08-24T12:19:45;1.63;;;1.00;;
41532;SDS011;27262;-35.248;149.138;2023-08-24T12:22:26;1.38;;;0.95;;
41532;SDS011;27262;-35.248;149.138;2023-08-24T12:24:58;1.92;;;1.20;;
41532;SDS011;27262;-35.248;149.138;2023-08-24T12:27:28;1.58;;;1.23;;
41532;SDS011;27262;-35.248;149.138;2023-08-24T12:30:02;1.13;;;1.02;;
41532;SDS011;27262;-35.248;149.138;2023-08-24T12:32:44;3.80;;;1.08;;
41532;SDS011;27262;-35.248;149.138;2023-08-24T12:35:16;3.50;;;1.27;;
41532;SDS011;27262;-35.248;149.138;2023-08-24T12:37:47;2.15;;;0.90;;
41532;SDS011;27262;-35.248;149.138;2023-08-24T12:40:17;0.82;;;0.68;;
41532;SDS011;27262;-35.248;149.138;2023-08-24T12:42:50;1.27;;;1.13;;
41532;SDS011;27262;-35.248;149.138;2023-08-24T12:45:20;2.35;;;1.33;;
41532;SDS011;27262;-35.248;149.138;2023-08-24T12:47:50;2.30;;;1.20;;
41532;SDS011;27262;-35.248;149.138;2023-08-24T12:50:21;1.25;;;1.10;;
41532;SDS011;27262;-35.248;149.138;2023-08-24T12:52:53;1.52;;;1.10;;
41532;SDS011;27262;-35.248;149.138;2023-08-24T12:55:27;1.23;;;1.02;;
41532;SDS011;27262;-35.248;149.138;2023-08-24T12:57:57;1.35;;;0.93;;
41532;SDS011;27262;-35.248;149.138;2023-08-24T13:00:28;1.83;;;1.27;;
41532;SDS011;27262;-35.248;149.138;2023-08-24T13:02:58;1.30;;;1.10;;
41532;SDS011;27262;-35.248;149.138;2023-08-24T13:05:29;1.73;;;1.10;;
41532;SDS011;27262;-35.248;149.138;2023-08-24T13:08:01;1.20;;;0.90;;
41532;SDS011;27262;-35.248;149.138;2023-08-24T13:10:31;1.25;;;1.13;;
41532;SDS011;27262;-35.248;149.138;2023-08-24T13:13:02;1.33;;;1.23;;
41532;SDS011;27262;-35.248;149.138;2023-08-24T13:15:33;1.40;;;1.30;;
41532;SDS011;27262;-35.248;149.138;2023-08-24T13:18:03;2.65;;;1.50;;
41532;SDS011;27262;-35.248;149.138;2023-08-24T13:20:34;1.90;;;1.40;;
41532;SDS011;27262;-35.248;149.138;2023-08-24T13:23:04;1.70;;;1.40;;
41532;SDS011;27262;-35.248;149.138;2023-08-24T13:25:34;1.85;;;1.45;;
41532;SDS011;27262;-35.248;149.138;2023-08-24T13:28:05;2.65;;;1.33;;
41532;SDS011;27262;-35.248;149.138;2023-08-24T13:30:35;1.45;;;1.35;;
41532;SDS011;27262;-35.248;149.138;2023-08-24T13:33:06;1.83;;;1.30;;
41532;SDS011;27262;-35.248;149.138;2023-08-24T13:35:36;1.35;;;1.00;;
41532;SDS011;27262;-35.248;149.138;2023-08-24T13:38:07;1.40;;;1.30;;
41532;SDS011;27262;-35.248;149.138;2023-08-24T13:40:38;1.45;;;1.33;;
41532;SDS011;27262;-35.248;149.138;2023-08-24T13:43:08;1.95;;;1.42;;
41532;SDS011;27262;-35.248;149.138;2023-08-24T13:45:39;2.42;;;1.60;;
41532;SDS011;27262;-35.248;149.138;2023-08-24T13:48:09;1.40;;;1.02;;
41532;SDS011;27262;-35.248;149.138;2023-08-24T13:50:49;1.92;;;1.55;;
41532;SDS011;27262;-35.248;149.138;2023-08-24T13:53:22;2.08;;;1.60;;
41532;SDS011;27262;-35.248;149.138;2023-08-24T13:55:52;1.70;;;1.42;;
41532;SDS011;27262;-35.248;149.138;2023-08-24T13:58:22;1.45;;;1.35;;
41532;SDS011;27262;-35.248;149.138;2023-08-24T14:00:56;1.55;;;1.38;;
41532;SDS011;27262;-35.248;149.138;2023-08-24T14:03:26;3.63;;;1.30;;
41532;SDS011;27262;-35.248;149.138;2023-08-24T14:05:57;1.67;;;1.38;;
41532;SDS011;27262;-35.248;149.138;2023-08-24T14:08:27;2.22;;;1.70;;
41532;SDS011;27262;-35.248;149.138;2023-08-24T14:10:58;1.75;;;1.20;;
41532;SDS011;27262;-35.248;149.138;2023-08-24T14:13:28;1.70;;;1.23;;
41532;SDS011;27262;-35.248;149.138;2023-08-24T14:16:00;1.30;;;1.20;;
41532;SDS011;27262;-35.248;149.138;2023-08-24T14:18:30;2.10;;;1.33;;
41532;SDS011;27262;-35.248;149.138;2023-08-24T14:21:00;1.92;;;1.30;;
41532;SDS011;27262;-35.248;149.138;2023-08-24T14:23:31;2.10;;;1.25;;
41532;SDS011;27262;-35.248;149.138;2023-08-24T14:26:02;1.70;;;1.23;;
41532;SDS011;27262;-35.248;149.138;2023-08-24T14:28:52;1.20;;;0.98;;
41532;SDS011;27262;-35.248;149.138;2023-08-24T14:31:27;2.13;;;1.10;;
41532;SDS011;27262;-35.248;149.138;2023-08-24T14:33:58;1.40;;;1.10;;
41532;SDS011;27262;-35.248;149.138;2023-08-24T14:36:28;1.90;;;1.13;;
41532;SDS011;27262;-35.248;149.138;2023-08-24T14:38:59;1.83;;;1.33;;
41532;SDS011;27262;-35.248;149.138;2023-08-24T14:41:30;0.70;;;0.60;;
41532;SDS011;27262;-35.248;149.138;2023-08-24T14:44:01;0.98;;;0.82;;
41532;SDS011;27262;-35.248;149.138;2023-08-24T14:46:31;1.00;;;0.85;;
41532;SDS011;27262;-35.248;149.138;2023-08-24T14:49:03;1.08;;;0.90;;
41532;SDS011;27262;-35.248;149.138;2023-08-24T14:51:33;1.55;;;1.10;;